Time;durP1;ratioP1;P1;durP2;ratioP2;P2;SDS_P1;SDS_P2;PMS_P1;PMS_P2;Temp;Humidity;BMP_temperature;BMP_pressure;BME280_temperature;BME280_humidity;BME280_pressure;Samples;Min_cycle;Max_cycle;Signal;HPM_P1;HPM_P2
2023/01/11 00:04:12;;;;;;;1.83;0.53;;;;;;;;;;10430441;28;20049;-74
2023/01/11 00:09:15;;;;;;;6.03;2.83;;;;;;;;;;10427812;28;20045;-74
2023/01/11 00:14:18;;;;;;;3.08;0.80;;;;;;;;;;10429156;28;20041;-75
2023/01/11 00:19:22;;;;;;;2.03;0.90;;;;;;;;;;10429676;28;20133;-75
2023/01/11 00:24:24;;;;;;;1.45;0.90;;;;;;;;;;10429402;28;20286;-74
2023/01/11 00:29:27;;;;;;;0.73;0.40;;;;;;;;;;10428788;28;20044;-73
2023/01/11 00:34:31;;;;;;;2.10;0.80;;;;;;;;;;10434720;28;20075;-74
2023/01/11 00:39:33;;;;;;;1.63;0.75;;;;;;;;;;10439047;28;20057;-73
2023/01/11 00:49:58;;;;;;;1.57;0.60;;;;;;;;;;10430416;28;20052;-74
2023/01/11 00:55:00;;;;;;;2.28;1.10;;;;;;;;;;10427253;28;20048;-74
2023/01/11 01:00:04;;;;;;;1.87;0.77;;;;;;;;;;10429251;28;20099;-74
2023/01/11 01:05:08;;;;;;;0.40;0.30;;;;;;;;;;10428444;28;20047;-75
2023/01/11 01:10:11;;;;;;;2.95;0.75;;;;;;;;;;10428100;28;20103;-75
2023/01/11 01:15:14;;;;;;;1.50;0.68;;;;;;;;;;10427400;28;20051;-73
2023/01/11 01:20:19;;;;;;;1.50;0.77;;;;;;;;;;10429715;28;20033;-74
2023/01/11 01:25:22;;;;;;;2.20;0.50;;;;;;;;;;10427395;28;20137;-75
2023/01/11 01:30:24;;;;;;;1.65;0.80;;;;;;;;;;10426748;28;20044;-78
2023/01/11 01:35:28;;;;;;;2.15;0.88;;;;;;;;;;10426325;28;20045;-73
2023/01/11 01:40:31;;;;;;;1.95;1.02;;;;;;;;;;10428840;28;20671;-74
2023/01/11 01:45:33;;;;;;;1.38;0.68;;;;;;;;;;10424627;28;20044;-74
2023/01/11 01:50:41;;;;;;;1.90;0.52;;;;;;;;;;10424062;28;20045;-74
2023/01/11 01:55:46;;;;;;;1.65;0.77;;;;;;;;;;10424152;28;20056;-73
2023/01/11 02:00:48;;;;;;;5.43;0.77;;;;;;;;;;10424166;28;20048;-74
2023/01/11 02:05:52;;;;;;;0.88;0.28;;;;;;;;;;10424170;28;20404;-73
2023/01/11 02:10:55;;;;;;;2.53;0.35;;;;;;;;;;10425310;28;20075;-74
2023/01/11 02:16:07;;;;;;;3.15;0.60;;;;;;;;;;10423256;28;20482;-74
2023/01/11 02:21:20;;;;;;;0.95;0.45;;;;;;;;;;10421645;28;20052;-73
2023/01/11 02:26:48;;;;;;;1.55;0.35;;;;;;;;;;10419877;28;20120;-73
2023/01/11 02:31:57;;;;;;;0.32;0.25;;;;;;;;;;10421827;28;20482;-74
2023/01/11 02:37:04;;;;;;;1.02;0.60;;;;;;;;;;10422741;28;20049;-74
2023/01/11 02:47:33;;;;;;;0.87;0.53;;;;;;;;;;10437146;28;20436;-74
2023/01/11 02:52:39;;;;;;;0.43;0.32;;;;;;;;;;10423584;28;20146;-73
2023/01/11 02:57:42;;;;;;;0.98;0.40;;;;;;;;;;10421244;28;20041;-74
2023/01/11 03:02:46;;;;;;;1.63;0.50;;;;;;;;;;10422109;28;20106;-75
2023/01/11 03:07:54;;;;;;;1.45;0.60;;;;;;;;;;10424300;28;20382;-74
2023/01/11 03:13:03;;;;;;;1.00;0.63;;;;;;;;;;10423675;28;20046;-73
2023/01/11 03:18:14;;;;;;;0.50;0.45;;;;;;;;;;10430168;28;20040;-75
2023/01/11 03:23:20;;;;;;;0.75;0.40;;;;;;;;;;10444214;28;20044;-74
2023/01/11 03:28:25;;;;;;;0.30;0.30;;;;;;;;;;10435952;28;20456;-74
2023/01/11 03:33:34;;;;;;;0.73;0.30;;;;;;;;;;10435237;28;20048;-75
2023/01/11 03:38:42;;;;;;;0.90;0.60;;;;;;;;;;10429933;28;20115;-74
2023/01/11 03:43:46;;;;;;;0.90;0.40;;;;;;;;;;10427831;28;20044;-75
2023/01/11 03:48:52;;;;;;;0.30;0.30;;;;;;;;;;10429819;28;20046;-74
2023/01/11 03:53:57;;;;;;;0.77;0.50;;;;;;;;;;10428212;28;20516;-75
2023/01/11 03:59:01;;;;;;;1.85;0.40;;;;;;;;;;10431689;28;20049;-74
2023/01/11 04:04:05;;;;;;;1.17;0.43;;;;;;;;;;10412158;28;20041;-75
2023/01/11 04:09:07;;;;;;;0.63;0.45;;;;;;;;;;10429203;28;20486;-73
2023/01/11 04:14:10;;;;;;;1.63;0.70;;;;;;;;;;10430704;28;20043;-74
2023/01/11 04:19:15;;;;;;;1.58;0.70;;;;;;;;;;10428166;28;20045;-74
2023/01/11 04:24:18;;;;;;;0.80;0.32;;;;;;;;;;10428473;28;20126;-74
2023/01/11 04:29:20;;;;;;;1.95;0.40;;;;;;;;;;10426468;28;20160;-73
2023/01/11 04:34:25;;;;;;;0.05;0.05;;;;;;;;;;10427615;28;20084;-74
2023/01/11 04:39:27;;;;;;;0.60;0.50;;;;;;;;;;10423188;28;20542;-74
2023/01/11 04:44:30;;;;;;;0.50;0.40;;;;;;;;;;10426471;28;20095;-74
2023/01/11 04:49:34;;;;;;;0.20;0.20;;;;;;;;;;10426909;28;20052;-74
2023/01/11 04:54:37;;;;;;;0.43;0.30;;;;;;;;;;10425960;28;20045;-74
2023/01/11 04:59:39;;;;;;;1.35;0.30;;;;;;;;;;10426212;28;20453;-75
2023/01/11 05:04:43;;;;;;;0.45;0.45;;;;;;;;;;10424877;28;20631;-74
2023/01/11 05:09:46;;;;;;;0.63;0.45;;;;;;;;;;10429828;28;20044;-74
2023/01/11 05:14:48;;;;;;;0.85;0.47;;;;;;;;;;10428566;28;20130;-74
2023/01/11 05:19:52;;;;;;;0.73;0.40;;;;;;;;;;10426681;28;20079;-73
2023/01/11 05:24:55;;;;;;;2.17;0.20;;;;;;;;;;10423959;28;20041;-73
2023/01/11 05:29:57;;;;;;;0.20;0.20;;;;;;;;;;10423140;28;20458;-75
2023/01/11 05:35:01;;;;;;;1.45;0.40;;;;;;;;;;10422413;28;20025;-75
2023/01/11 05:40:05;;;;;;;0.68;0.30;;;;;;;;;;10425276;28;20048;-74
2023/01/11 05:50:29;;;;;;;0.50;0.30;;;;;;;;;;10424971;28;20052;-75
2023/01/11 05:55:32;;;;;;;0.40;0.30;;;;;;;;;;10423325;28;20100;-75
2023/01/11 06:00:34;;;;;;;0.52;0.30;;;;;;;;;;10424428;28;20052;-74
2023/01/11 06:05:38;;;;;;;0.85;0.40;;;;;;;;;;10421705;28;20041;-74
2023/01/11 06:10:41;;;;;;;0.55;0.40;;;;;;;;;;10424766;28;20045;-75
2023/01/11 06:15:44;;;;;;;1.02;0.47;;;;;;;;;;10425276;28;20102;-73
2023/01/11 06:20:49;;;;;;;1.27;0.40;;;;;;;;;;10423535;28;22459;-74
2023/01/11 06:25:52;;;;;;;0.60;0.35;;;;;;;;;;10423708;28;20036;-74
2023/01/11 06:30:55;;;;;;;0.17;0.15;;;;;;;;;;10423083;28;20134;-75
2023/01/11 06:36:03;;;;;;;0.60;0.60;;;;;;;;;;10437474;28;20519;-75
2023/01/11 06:41:08;;;;;;;1.10;0.57;;;;;;;;;;10421411;28;20048;-74
2023/01/11 06:46:11;;;;;;;1.17;0.38;;;;;;;;;;10419961;28;20048;-76
2023/01/11 06:51:16;;;;;;;0.52;0.47;;;;;;;;;;10420862;28;20408;-75
2023/01/11 06:56:18;;;;;;;0.77;0.52;;;;;;;;;;10418191;28;20545;-74
2023/01/11 07:01:21;;;;;;;2.83;0.57;;;;;;;;;;10421033;28;20045;-75
2023/01/11 07:06:27;;;;;;;1.30;0.70;;;;;;;;;;10425331;28;20139;-74
2023/01/11 07:11:33;;;;;;;0.85;0.30;;;;;;;;;;10430101;28;20055;-75
2023/01/11 07:16:36;;;;;;;2.08;0.43;;;;;;;;;;10432522;28;20071;-75
2023/01/11 07:21:40;;;;;;;0.28;0.28;;;;;;;;;;10430081;28;21580;-75
2023/01/11 07:26:43;;;;;;;0.10;0.10;;;;;;;;;;10430207;28;20044;-74
2023/01/11 07:31:46;;;;;;;0.65;0.28;;;;;;;;;;10444196;28;20059;-74
2023/01/11 07:36:50;;;;;;;0.85;0.60;;;;;;;;;;10429929;28;20052;-75
2023/01/11 07:47:12;;;;;;;2.67;0.60;;;;;;;;;;10433435;28;20037;-76
2023/01/11 07:52:16;;;;;;;1.60;0.40;;;;;;;;;;10430199;28;20045;-74
2023/01/11 07:57:19;;;;;;;1.77;0.85;;;;;;;;;;10430974;28;20029;-77
2023/01/11 08:02:21;;;;;;;1.90;0.98;;;;;;;;;;10429004;28;20053;-76
2023/01/11 08:07:26;;;;;;;4.93;0.93;;;;;;;;;;10428532;28;20041;-73
2023/01/11 08:17:51;;;;;;;1.35;0.60;;;;;;;;;;10434181;28;20051;-74
2023/01/11 08:22:55;;;;;;;0.50;0.47;;;;;;;;;;10429522;28;20041;-74
2023/01/11 08:27:58;;;;;;;;;;;;;;;;;;10430283;28;20042;-74
2023/01/11 08:33:01;;;;;;;0.52;0.45;;;;;;;;;;10428836;28;19935;-75
2023/01/11 08:38:05;;;;;;;0.73;0.40;;;;;;;;;;10428369;28;20033;-74
2023/01/11 08:43:07;;;;;;;0.82;0.82;;;;;;;;;;10419769;28;20049;-75
2023/01/11 08:48:11;;;;;;;0.85;0.50;;;;;;;;;;10429796;28;20510;-75
2023/01/11 08:53:15;;;;;;;0.93;0.60;;;;;;;;;;10427603;28;20044;-74
2023/01/11 08:58:18;;;;;;;2.80;0.68;;;;;;;;;;10428663;28;20238;-75
2023/01/11 09:03:22;;;;;;;3.60;1.27;;;;;;;;;;10425290;28;20047;-73
2023/01/11 09:08:27;;;;;;;1.27;0.70;;;;;;;;;;10426904;28;20041;-74
2023/01/11 09:13:30;;;;;;;2.55;0.95;;;;;;;;;;10427138;28;20326;-74
2023/01/11 09:18:33;;;;;;;0.77;0.57;;;;;;;;;;10430759;28;20551;-74
2023/01/11 09:23:36;;;;;;;0.30;0.30;;;;;;;;;;10425580;28;20118;-75
2023/01/11 09:28:40;;;;;;;1.80;0.75;;;;;;;;;;10426825;28;20049;-75
2023/01/11 09:33:42;;;;;;;0.47;0.47;;;;;;;;;;10426128;28;20049;-74
2023/01/11 09:38:47;;;;;;;0.90;0.70;;;;;;;;;;10427373;28;20041;-73
2023/01/11 09:43:52;;;;;;;1.77;0.90;;;;;;;;;;10425107;28;20052;-75
2023/01/11 09:48:58;;;;;;;2.15;0.85;;;;;;;;;;10424653;28;20068;-75
2023/01/11 09:54:05;;;;;;;1.23;0.60;;;;;;;;;;10425224;28;20057;-75
2023/01/11 09:59:19;;;;;;;2.30;1.00;;;;;;;;;;10423974;28;20479;-75
2023/01/11 10:04:50;;;;;;;2.38;1.10;;;;;;;;;;10425511;28;20270;-73
2023/01/11 10:10:02;;;;;;;2.65;0.98;;;;;;;;;;10380535;28;20063;-74
2023/01/11 10:15:31;;;;;;;5.45;1.30;;;;;;;;;;10433617;28;20076;-74
2023/01/11 10:20:55;;;;;;;2.80;1.58;;;;;;;;;;10424555;28;20050;-75
2023/01/11 10:26:08;;;;;;;4.50;1.95;;;;;;;;;;10439015;28;20136;-76
2023/01/11 10:31:28;;;;;;;5.82;1.80;;;;;;;;;;10423395;28;20124;-75
2023/01/11 10:36:50;;;;;;;2.90;1.52;;;;;;;;;;10424993;28;20060;-77
2023/01/11 10:42:02;;;;;;;1.77;1.30;;;;;;;;;;10424845;28;21661;-77
2023/01/11 10:47:08;;;;;;;1.92;1.40;;;;;;;;;;10424261;28;20051;-75
2023/01/11 10:52:17;;;;;;;3.63;1.55;;;;;;;;;;10422995;28;20134;-75
2023/01/11 10:57:26;;;;;;;4.90;1.77;;;;;;;;;;10423096;28;20485;-75
2023/01/11 11:02:38;;;;;;;2.70;1.75;;;;;;;;;;10425345;28;20071;-75
2023/01/11 11:07:44;;;;;;;0.88;0.85;;;;;;;;;;10424633;28;20041;-75
2023/01/11 11:12:54;;;;;;;2.97;1.33;;;;;;;;;;10428118;28;20045;-74
2023/01/11 11:17:56;;;;;;;3.55;1.33;;;;;;;;;;10422888;28;20128;-75
2023/01/11 11:22:59;;;;;;;2.07;0.80;;;;;;;;;;10425095;28;20119;-73
2023/01/11 11:28:05;;;;;;;2.10;1.15;;;;;;;;;;10424130;28;20037;-75
2023/01/11 11:33:08;;;;;;;5.25;1.05;;;;;;;;;;10422859;28;21868;-74
2023/01/11 11:38:20;;;;;;;2.55;0.90;;;;;;;;;;10423239;28;20123;-76
2023/01/11 11:43:24;;;;;;;1.85;1.20;;;;;;;;;;10422914;28;20041;-75
2023/01/11 11:48:28;;;;;;;1.15;0.65;;;;;;;;;;10423282;28;20126;-76
2023/01/11 11:53:30;;;;;;;;;;;;;;;;;;10426873;28;20051;-73
2023/01/11 11:58:34;;;;;;;4.20;1.25;;;;;;;;;;10431057;28;19925;-74
2023/01/11 12:03:37;;;;;;;;;;;;;;;;;;10419973;28;20040;-73
2023/01/11 12:08:42;;;;;;;3.85;0.98;;;;;;;;;;10429584;28;20007;-74
2023/01/11 12:13:57;;;;;;;0.95;0.68;;;;;;;;;;10433308;28;20137;-74
2023/01/11 12:18:59;;;;;;;1.88;0.60;;;;;;;;;;10429870;28;20564;-74
2023/01/11 12:24:10;;;;;;;0.90;0.50;;;;;;;;;;10427940;28;20090;-74
2023/01/11 12:29:12;;;;;;;1.65;0.60;;;;;;;;;;10420320;28;20128;-75
2023/01/11 12:34:21;;;;;;;2.35;0.85;;;;;;;;;;10428758;28;20103;-74
2023/01/11 12:39:29;;;;;;;0.47;0.43;;;;;;;;;;10427713;28;20044;-76
2023/01/11 12:44:40;;;;;;;0.90;0.40;;;;;;;;;;10428918;28;20039;-75
2023/01/11 12:49:46;;;;;;;0.35;0.28;;;;;;;;;;10429858;28;20036;-74
2023/01/11 12:55:00;;;;;;;1.65;0.50;;;;;;;;;;10427529;28;21946;-74
2023/01/11 13:00:10;;;;;;;1.13;0.60;;;;;;;;;;10427600;28;20474;-74
2023/01/11 13:05:22;;;;;;;1.55;0.50;;;;;;;;;;10427196;28;20048;-74
2023/01/11 13:10:29;;;;;;;0.40;0.40;;;;;;;;;;10425592;28;20046;-74
2023/01/11 13:15:40;;;;;;;0.60;0.50;;;;;;;;;;10428724;28;20033;-74
2023/01/11 13:20:50;;;;;;;0.95;0.60;;;;;;;;;;10425616;28;20052;-75
2023/01/11 13:26:09;;;;;;;0.52;0.40;;;;;;;;;;10426710;28;20463;-74
2023/01/11 13:31:13;;;;;;;0.85;0.52;;;;;;;;;;10424129;28;20383;-75
2023/01/11 13:36:19;;;;;;;0.68;0.60;;;;;;;;;;10426693;28;20508;-75
2023/01/11 13:41:27;;;;;;;0.40;0.25;;;;;;;;;;10427420;28;20194;-76
2023/01/11 13:46:51;;;;;;;0.88;0.28;;;;;;;;;;10426922;28;20122;-76
2023/01/11 13:51:57;;;;;;;0.40;0.30;;;;;;;;;;10424682;28;20052;-73
2023/01/11 13:57:00;;;;;;;1.33;0.50;;;;;;;;;;10426737;28;20045;-74
2023/01/11 14:02:04;;;;;;;0.33;0.20;;;;;;;;;;10425083;28;20048;-74
2023/01/11 14:07:13;;;;;;;1.00;0.35;;;;;;;;;;10425001;28;20606;-74
2023/01/11 14:12:24;;;;;;;0.60;0.40;;;;;;;;;;10424314;28;20093;-74
2023/01/11 14:17:31;;;;;;;0.30;0.30;;;;;;;;;;10424236;28;20045;-74
2023/01/11 14:22:38;;;;;;;1.02;0.38;;;;;;;;;;10422083;28;20135;-74
2023/01/11 14:27:47;;;;;;;0.43;0.30;;;;;;;;;;10424143;28;20078;-73
2023/01/11 14:33:02;;;;;;;0.60;0.40;;;;;;;;;;10424368;28;20045;-74
2023/01/11 14:38:25;;;;;;;1.00;0.40;;;;;;;;;;10422706;28;20127;-74
2023/01/11 14:43:46;;;;;;;1.40;0.57;;;;;;;;;;10425965;28;20041;-74
2023/01/11 14:48:55;;;;;;;1.48;0.45;;;;;;;;;;10425618;28;20042;-74
2023/01/11 14:54:01;;;;;;;0.73;0.47;;;;;;;;;;10423370;28;20049;-74
2023/01/11 14:59:05;;;;;;;0.80;0.20;;;;;;;;;;10422754;28;20045;-75
2023/01/11 15:04:19;;;;;;;0.50;0.40;;;;;;;;;;10422410;28;20482;-74
2023/01/11 15:09:37;;;;;;;0.68;0.30;;;;;;;;;;10423182;28;20295;-75
2023/01/11 15:14:39;;;;;;;0.50;0.38;;;;;;;;;;10426654;28;20075;-73
2023/01/11 15:19:44;;;;;;;2.50;0.32;;;;;;;;;;10423207;28;20076;-74
2023/01/11 15:24:54;;;;;;;0.75;0.30;;;;;;;;;;10422527;28;20041;-73
2023/01/11 15:29:58;;;;;;;1.33;0.40;;;;;;;;;;10429414;28;20564;-73
2023/01/11 15:35:29;;;;;;;0.30;0.27;;;;;;;;;;10430554;28;20041;-73
2023/01/11 15:40:34;;;;;;;0.63;0.38;;;;;;;;;;10432111;28;20792;-73
2023/01/11 15:51:11;;;;;;;0.63;0.40;;;;;;;;;;10431055;28;20569;-74
2023/01/11 15:56:36;;;;;;;0.30;0.30;;;;;;;;;;10430013;28;20271;-74
2023/01/11 16:01:48;;;;;;;1.48;0.65;;;;;;;;;;10430410;28;20041;-75
2023/01/11 16:06:54;;;;;;;2.78;0.50;;;;;;;;;;10425982;28;20063;-74
2023/01/11 16:12:05;;;;;;;3.75;0.80;;;;;;;;;;10429906;28;20079;-76
2023/01/11 16:17:11;;;;;;;0.50;0.40;;;;;;;;;;10425921;28;20349;-74
2023/01/11 16:22:18;;;;;;;1.40;0.77;;;;;;;;;;10425011;28;20045;-73
2023/01/11 16:27:23;;;;;;;0.82;0.65;;;;;;;;;;10426431;28;20040;-75
2023/01/11 16:32:31;;;;;;;1.40;0.80;;;;;;;;;;10425887;28;20048;-74
2023/01/11 16:37:37;;;;;;;1.98;0.60;;;;;;;;;;10426665;28;20044;-74
2023/01/11 16:42:42;;;;;;;1.75;0.77;;;;;;;;;;10423767;28;20036;-75
2023/01/11 16:48:01;;;;;;;0.70;0.47;;;;;;;;;;10424853;28;20092;-74
2023/01/11 16:53:05;;;;;;;0.60;0.55;;;;;;;;;;10422215;28;20466;-76
2023/01/11 16:58:18;;;;;;;0.55;0.55;;;;;;;;;;10424748;28;20044;-76
2023/01/11 17:03:22;;;;;;;1.05;0.60;;;;;;;;;;10421902;28;20072;-74
2023/01/11 17:08:28;;;;;;;2.30;0.90;;;;;;;;;;10422753;28;20114;-74
2023/01/11 17:13:54;;;;;;;1.10;0.50;;;;;;;;;;10424661;28;20052;-74
2023/01/11 17:18:58;;;;;;;2.60;0.90;;;;;;;;;;10421930;28;20486;-74
2023/01/11 17:24:03;;;;;;;1.48;0.60;;;;;;;;;;10421185;28;20045;-74
2023/01/11 17:29:05;;;;;;;1.70;0.63;;;;;;;;;;10421097;28;20069;-74
2023/01/11 17:34:15;;;;;;;1.20;0.73;;;;;;;;;;10426121;28;20507;-74
2023/01/11 17:39:24;;;;;;;1.92;0.73;;;;;;;;;;10425852;28;20052;-74
2023/01/11 17:49:48;;;;;;;0.98;0.68;;;;;;;;;;10440605;28;20044;-74
2023/01/11 17:55:01;;;;;;;0.95;0.52;;;;;;;;;;10443274;28;20494;-74
2023/01/11 18:00:15;;;;;;;0.80;0.80;;;;;;;;;;10441747;28;20041;-74
2023/01/11 18:05:18;;;;;;;;;;;;;;;;;;10444344;28;20040;-74
2023/01/11 18:10:23;;;;;;;0.70;0.70;;;;;;;;;;10444312;28;19964;-74
2023/01/11 18:15:28;;;;;;;1.10;0.70;;;;;;;;;;10435400;28;20053;-74
2023/01/11 18:20:35;;;;;;;0.70;0.47;;;;;;;;;;10440824;28;20494;-75
2023/01/11 18:25:40;;;;;;;1.77;0.60;;;;;;;;;;10438188;28;20571;-77
2023/01/11 18:30:44;;;;;;;1.80;0.80;;;;;;;;;;10436779;28;20455;-75
2023/01/11 18:35:46;;;;;;;;;;;;;;;;;;10440261;28;20530;-76
2023/01/11 18:40:51;;;;;;;1.90;0.60;;;;;;;;;;10438960;28;20352;-74
2023/01/11 18:45:54;;;;;;;1.70;0.70;;;;;;;;;;10444971;28;20040;-76
2023/01/11 18:50:57;;;;;;;2.30;0.70;;;;;;;;;;10439368;28;20041;-75
2023/01/11 18:56:01;;;;;;;0.77;0.57;;;;;;;;;;10444172;28;20051;-75
2023/01/11 19:01:06;;;;;;;0.57;0.38;;;;;;;;;;10437023;28;20029;-74
2023/01/11 19:06:11;;;;;;;1.30;0.60;;;;;;;;;;10441264;28;20128;-75
2023/01/11 19:11:15;;;;;;;1.67;0.63;;;;;;;;;;10450183;28;20072;-75
2023/01/11 19:16:18;;;;;;;0.40;0.30;;;;;;;;;;10448373;28;20037;-75
2023/01/11 19:21:20;;;;;;;1.02;0.52;;;;;;;;;;10442245;28;20041;-74
2023/01/11 19:26:26;;;;;;;1.48;0.60;;;;;;;;;;10450628;28;20041;-74
2023/01/11 19:31:29;;;;;;;1.05;0.60;;;;;;;;;;10448202;28;20053;-74
2023/01/11 19:36:31;;;;;;;1.60;0.75;;;;;;;;;;10439526;28;20067;-74
2023/01/11 19:46:53;;;;;;;4.47;0.98;;;;;;;;;;10441377;28;20071;-75
2023/01/11 19:52:12;;;;;;;1.05;0.55;;;;;;;;;;10446440;28;20029;-74
2023/01/11 19:57:20;;;;;;;1.35;1.15;;;;;;;;;;10449196;28;20053;-76
2023/01/11 20:02:23;;;;;;;2.22;1.23;;;;;;;;;;10439860;28;20036;-75
2023/01/11 20:07:26;;;;;;;1.98;1.00;;;;;;;;;;10444598;28;20502;-77
2023/01/11 20:12:30;;;;;;;1.80;1.13;;;;;;;;;;10450262;28;20063;-75
2023/01/11 20:17:36;;;;;;;2.00;1.42;;;;;;;;;;10443858;28;20130;-76
2023/01/11 20:22:42;;;;;;;1.08;0.80;;;;;;;;;;10448363;28;20699;-75
2023/01/11 20:27:46;;;;;;;2.72;0.98;;;;;;;;;;10440560;28;20107;-74
2023/01/11 20:32:49;;;;;;;2.53;1.52;;;;;;;;;;10446063;28;20045;-75
2023/01/11 20:37:52;;;;;;;2.53;1.30;;;;;;;;;;10437784;28;20244;-74
2023/01/11 20:42:56;;;;;;;2.03;1.20;;;;;;;;;;10443823;28;20048;-75
2023/01/11 20:47:59;;;;;;;3.97;2.17;;;;;;;;;;10437027;28;20045;-75
2023/01/11 20:53:02;;;;;;;3.65;2.20;;;;;;;;;;10445298;28;20057;-74
2023/01/11 20:58:05;;;;;;;2.53;1.55;;;;;;;;;;10446170;28;20041;-75
2023/01/11 21:03:08;;;;;;;4.40;1.75;;;;;;;;;;10441865;28;20133;-76
2023/01/11 21:08:11;;;;;;;3.10;1.75;;;;;;;;;;10440931;28;20107;-73
2023/01/11 21:13:15;;;;;;;1.63;0.85;;;;;;;;;;10444202;28;20059;-75
2023/01/11 21:18:17;;;;;;;2.25;0.95;;;;;;;;;;10426442;28;20430;-75
2023/01/11 21:23:20;;;;;;;1.83;1.20;;;;;;;;;;10425901;28;20045;-75
2023/01/11 21:28:24;;;;;;;1.35;1.00;;;;;;;;;;10424663;28;20055;-75
2023/01/11 21:33:28;;;;;;;2.85;1.30;;;;;;;;;;10442276;28;20056;-76
2023/01/11 21:38:31;;;;;;;1.48;0.90;;;;;;;;;;10422921;28;20318;-76
2023/01/11 21:43:35;;;;;;;2.43;1.40;;;;;;;;;;10426035;28;20045;-76
2023/01/11 21:48:38;;;;;;;2.42;1.65;;;;;;;;;;10423892;28;20149;-77
2023/01/11 21:53:41;;;;;;;3.25;1.30;;;;;;;;;;10424439;28;20049;-76
2023/01/11 21:58:45;;;;;;;2.88;1.45;;;;;;;;;;10428653;28;20059;-77
2023/01/11 22:03:47;;;;;;;2.70;1.20;;;;;;;;;;10422511;28;20490;-77
2023/01/11 22:08:50;;;;;;;2.47;1.00;;;;;;;;;;10428232;28;20149;-77
2023/01/11 22:13:54;;;;;;;4.07;1.70;;;;;;;;;;10423085;28;20048;-75
2023/01/11 22:18:57;;;;;;;;;;;;;;;;;;10425136;28;20045;-76
2023/01/11 22:24:00;;;;;;;4.25;1.70;;;;;;;;;;10422802;28;20349;-76
2023/01/11 22:29:17;;;;;;;6.57;1.70;;;;;;;;;;10424823;28;20139;-76
2023/01/11 22:34:21;;;;;;;3.75;1.40;;;;;;;;;;10424422;28;20048;-76
2023/01/11 22:39:24;;;;;;;2.17;1.10;;;;;;;;;;10423655;28;20706;-76
2023/01/11 22:44:28;;;;;;;1.83;1.00;;;;;;;;;;10423187;28;20037;-76
2023/01/11 22:49:31;;;;;;;3.53;1.10;;;;;;;;;;10423302;28;20057;-77
2023/01/11 22:54:33;;;;;;;2.80;1.58;;;;;;;;;;10424498;28;20033;-76
2023/01/11 22:59:37;;;;;;;3.70;1.58;;;;;;;;;;10426498;28;20076;-77
2023/01/11 23:04:40;;;;;;;3.20;1.58;;;;;;;;;;10422380;28;21989;-76
2023/01/11 23:09:43;;;;;;;3.10;1.20;;;;;;;;;;10436399;28;20052;-77
2023/01/11 23:14:47;;;;;;;1.73;1.05;;;;;;;;;;10425535;28;20037;-78
2023/01/11 23:19:49;;;;;;;2.95;1.00;;;;;;;;;;10421921;28;20053;-76
2023/01/11 23:24:52;;;;;;;3.08;1.23;;;;;;;;;;10421728;28;20136;-77
2023/01/11 23:29:56;;;;;;;2.47;1.20;;;;;;;;;;10423685;28;20081;-77
2023/01/11 23:34:58;;;;;;;;;;;;;;;;;;10423610;28;20248;-76
2023/01/11 23:40:01;;;;;;;1.85;0.98;;;;;;;;;;10422036;28;19968;-76
2023/01/11 23:45:06;;;;;;;1.63;0.93;;;;;;;;;;10424140;28;20088;-75
2023/01/11 23:50:09;;;;;;;2.17;1.08;;;;;;;;;;10425602;28;20385;-76
2023/01/11 23:55:12;;;;;;;6.03;1.33;;;;;;;;;;10429513;28;20503;-77
